METAR UND TAF INFORMATION

METAR FOR LQSA
ADDS - METARS form results

(0416 UTC 26 June 2022)
Data provider http://aviationweather.gov/metar/data/
 
METAR text: LQSA 260400Z VRB02KT CAVOK 14/14 Q1018
Conditions at: LQSA (SARAJEVO/BUTMIR , BA) observed 0400 UTC 26 June 2022
Temperature: 14.0°C (57°F)
Dewpoint: 14.0°C (57°F) [RH = 100%]
Pressure (altimeter): 30.06 inches Hg (1018.0 mb)
Winds: variable direction winds at 2 MPH (2 knots; 1.0 m/s)
Visibility: 6 or more miles (10+ km)
Ceiling: ceiling and visibility are OK
Clouds: unknown
Weather: no significant weather observed at this time

METAR text: LQSA 260330Z 00000KT CAVOK 14/14 Q1018
Conditions at: LQSA (SARAJEVO/BUTMIR , BA) observed 0330 UTC 26 June 2022
Temperature: 14.0°C (57°F)
Dewpoint: 14.0°C (57°F) [RH = 100%]
Pressure (altimeter): 30.06 inches Hg (1018.0 mb)
Winds: calm
Visibility: 6 or more miles (10+ km)
Ceiling: ceiling and visibility are OK
Clouds: unknown
Weather: no significant weather observed at this time

Forecast for: LQSA (SARAJEVO/BUTMIR , BA)
Text: TAF LQSA 252300Z 2600/2624 30005KT CAVOK TX32/2614Z TN17/2603Z
Forecast period: 0000 UTC 26 June 2022 to 0000 UTC 27 June 2022
Forecast type: FROM: standard forecast or significant change
Winds: from the WNW (300 degrees) at 6 MPH (5 knots; 2.6 m/s)
Visibility: 6 or more miles (10+ km)
Ceiling: unknown
Clouds: missing
Weather: no significant weather forecast for this period
Text: PROB30
Forecast period: 0800 to 1400 UTC 26 June 2022
Forecast type: TEMPORARY: The following changes expected for less than half the time period
Visibility: missing
Ceiling: at least 12,000 feet AGL
Clouds: few clouds at 3500 feet AGL
scattered clouds at 5000 feet AGL
Weather: SHRA  (rain showers)

 FLUGHAFENKARTE

 RUNWAY INFORMATION
Runway 12 Runway length 8666 ft Runway width 150 ft
Runway elevation 1643 ft Runway displaced threshold 333 ft Runway heading 117
Runway 30 Runway length 8666 ft Runway width 150 ft
Runway elevation 1690 ft Runway displaced threshold 1666 ft Runway heading 297

 AIRPORT FREQUENCIES
Type APP Name APP Frequency 136.45 MHZ
Type GCA Name GCA Frequency 119.4 MHZ
Type GND Name GND Frequency 121.9 MHZ
Type TWR Name TWR Frequency 118.25 MHZ

 AIRPORT NEAR NAVIGATION AIDS
Type NDB Name Sarajevo Frequency 436 KHZ
Type VOR-DME Name Sarajevo Frequency 116700 KHZ
Type NDB Name Kobiljaca Frequency 358 KHZ
Type VORTAC Name Sarajevo Frequency 108850 KHZ